createdAt,value
2018-12-24T00:00:34.115Z,39.3
2018-12-24T00:01:34.030Z,36.3
2018-12-24T00:02:33.978Z,39.3
2018-12-24T00:03:33.997Z,39.3
2018-12-24T00:04:34.014Z,36.3
2018-12-24T00:05:34.034Z,36.3
2018-12-24T00:06:34.026Z,39.3
2018-12-24T00:07:34.047Z,42.3
2018-12-24T00:08:34.034Z,36.3
2018-12-24T00:09:34.073Z,36.3
2018-12-24T00:10:34.006Z,36.3
2018-12-24T00:11:34.029Z,39.3
2018-12-24T00:12:34.023Z,36.3
2018-12-24T00:13:33.981Z,33.3
2018-12-24T00:14:34.193Z,36.3
2018-12-24T00:15:33.990Z,33.3
2018-12-24T00:16:33.999Z,33.3
2018-12-24T00:17:34.037Z,30.3
2018-12-24T00:18:33.950Z,30.3
2018-12-24T00:19:35.308Z,33.3
2018-12-24T00:20:33.963Z,33.3
2018-12-24T00:21:34.081Z,30.3
2018-12-24T00:22:33.988Z,33.3
2018-12-24T00:23:34.035Z,30.3
2018-12-24T00:24:33.977Z,33.3
2018-12-24T00:25:34.016Z,33.3
2018-12-24T00:26:33.982Z,33.3
2018-12-24T00:27:34.067Z,36.3
2018-12-24T00:28:33.968Z,36.3
2018-12-24T00:29:33.958Z,36.3
2018-12-24T00:30:34.014Z,33.3
2018-12-24T00:31:34.071Z,33.3
2018-12-24T00:32:34.005Z,30.3
2018-12-24T00:33:33.977Z,30.3
2018-12-24T00:34:33.991Z,36.3
2018-12-24T00:35:34.059Z,39.3
2018-12-24T00:36:33.984Z,36.3
2018-12-24T00:37:33.977Z,30.3
2018-12-24T00:38:34.061Z,30.3
2018-12-24T00:39:34.001Z,30.3
2018-12-24T00:40:33.975Z,27.3
2018-12-24T00:41:34.085Z,24.3
2018-12-24T00:42:33.985Z,27.3
2018-12-24T00:43:34.001Z,27.3
2018-12-24T00:44:33.997Z,27.3
2018-12-24T00:45:33.963Z,30.3
2018-12-24T00:46:34.078Z,27.3
2018-12-24T00:47:34.010Z,30.3
2018-12-24T00:48:33.983Z,33.3
2018-12-24T00:49:33.992Z,33.3
2018-12-24T00:50:33.995Z,30.3
2018-12-24T00:51:34.025Z,36.3
2018-12-24T00:52:34.000Z,36.3
2018-12-24T00:53:34.076Z,36.3
2018-12-24T00:54:34.036Z,42.3
2018-12-24T00:55:34.078Z,39.3
2018-12-24T00:56:33.975Z,36.3
2018-12-24T00:57:34.004Z,42.3
2018-12-24T00:58:33.990Z,39.3
2018-12-24T00:59:33.996Z,36.3
2018-12-24T01:00:34.057Z,36.3
2018-12-24T01:01:33.985Z,39.3
2018-12-24T01:02:33.954Z,39.3
2018-12-24T01:03:33.981Z,30.3
2018-12-24T01:04:34.044Z,33.3
2018-12-24T01:05:34.116Z,36.3
2018-12-24T01:06:33.965Z,33.3
2018-12-24T01:07:33.944Z,33.3
2018-12-24T01:08:33.967Z,27.3
2018-12-24T01:09:34.074Z,36.3
2018-12-24T01:10:33.974Z,30.3
2018-12-24T01:11:33.974Z,30.3
2018-12-24T01:12:33.977Z,30.3
2018-12-24T01:13:33.960Z,30.3
2018-12-24T01:14:34.012Z,33.3
2018-12-24T01:15:34.036Z,27.3
2018-12-24T01:16:33.999Z,30.3
2018-12-24T01:17:33.980Z,27.3
2018-12-24T01:18:33.941Z,27.3
2018-12-24T01:19:33.958Z,27.3
2018-12-24T01:20:35.230Z,30.3
2018-12-24T01:21:33.973Z,33.3
2018-12-24T01:22:33.981Z,30.3
2018-12-24T01:23:33.997Z,30.3
2018-12-24T01:24:34.006Z,33.3
2018-12-24T01:25:33.977Z,39.3
2018-12-24T01:26:33.971Z,42.3
2018-12-24T01:27:33.978Z,39.3
2018-12-24T01:28:33.970Z,42.3
2018-12-24T01:29:34.010Z,39.3
2018-12-24T01:30:33.981Z,45.3
2018-12-24T01:31:33.978Z,36.3
2018-12-24T01:32:33.976Z,39.3
2018-12-24T01:33:33.961Z,39.3
2018-12-24T01:34:34.006Z,39.3
2018-12-24T01:35:33.938Z,36.3
2018-12-24T01:36:33.964Z,39.3
2018-12-24T01:37:34.040Z,36.3
2018-12-24T01:38:33.967Z,42.3
2018-12-24T01:39:33.956Z,36.3
2018-12-24T01:40:33.923Z,39.3
2018-12-24T01:41:34.027Z,39.3
2018-12-24T01:42:34.810Z,39.3
2018-12-24T01:43:33.952Z,36.3
2018-12-24T01:44:33.947Z,33.3
2018-12-24T01:45:33.925Z,42.3
2018-12-24T01:46:34.017Z,42.3
2018-12-24T01:47:33.964Z,45.3
2018-12-24T01:48:33.954Z,39.3
2018-12-24T01:49:33.952Z,42.3
2018-12-24T01:50:33.943Z,39.3
2018-12-24T01:51:34.019Z,36.3
2018-12-24T01:52:33.958Z,39.3
2018-12-24T01:53:33.967Z,48.3
2018-12-24T01:54:33.952Z,48.3
2018-12-24T01:55:34.007Z,48.3
2018-12-24T01:56:33.982Z,45.3
2018-12-24T01:57:33.955Z,45.3
2018-12-24T01:58:33.940Z,48.3
2018-12-24T01:59:34.011Z,39.3
2018-12-24T02:00:33.950Z,48.3
2018-12-24T02:01:33.945Z,48.3
2018-12-24T02:02:34.129Z,45.3
2018-12-24T02:03:33.944Z,45.3
2018-12-24T02:04:34.034Z,48.3
2018-12-24T02:05:33.962Z,42.3
2018-12-24T02:06:34.036Z,48.3
2018-12-24T02:07:33.919Z,51.3
2018-12-24T02:08:34.003Z,48.3
2018-12-24T02:09:34.020Z,45.3
2018-12-24T02:10:33.945Z,45.3
2018-12-24T02:11:33.951Z,48.3
2018-12-24T02:12:42.008Z,42.3
2018-12-24T02:13:33.919Z,42.3
2018-12-24T02:14:34.047Z,42.3
2018-12-24T02:15:33.940Z,39.3
2018-12-24T02:16:33.954Z,36.3
2018-12-24T02:17:33.939Z,42.3
2018-12-24T02:18:33.906Z,36.3
2018-12-24T02:19:34.017Z,39.3
2018-12-24T02:20:33.939Z,36.3
2018-12-24T02:21:33.940Z,39.3
2018-12-24T02:22:33.944Z,36.3
2018-12-24T02:23:33.905Z,36.3
2018-12-24T02:24:33.967Z,27.3
2018-12-24T02:25:33.935Z,33.3
2018-12-24T02:26:33.947Z,36.3
2018-12-24T02:27:33.952Z,36.3
2018-12-24T02:28:33.917Z,39.3
2018-12-24T02:29:33.985Z,51.3
2018-12-24T02:30:33.985Z,48.3
2018-12-24T02:31:34.008Z,51.3
2018-12-24T02:32:33.926Z,51.3
2018-12-24T02:33:34.166Z,54.3
2018-12-24T02:34:33.917Z,54.3
2018-12-24T02:35:33.910Z,69.4
2018-12-24T02:36:33.927Z,60.3
2018-12-24T02:37:34.001Z,54.3
2018-12-24T02:38:33.937Z,66.4
2018-12-24T02:39:33.931Z,60.3
2018-12-24T02:40:33.894Z,60.3
2018-12-24T02:41:33.923Z,54.3
2018-12-24T02:42:34.006Z,54.3
2018-12-24T02:43:33.933Z,63.4
2018-12-24T02:44:33.918Z,60.3
2018-12-24T02:45:33.890Z,63.4
2018-12-24T02:46:33.939Z,54.3
2018-12-24T02:47:33.996Z,72.4
2018-12-24T02:48:33.994Z,63.4
2018-12-24T02:49:34.106Z,60.3
2018-12-24T02:50:33.937Z,60.3
2018-12-24T02:51:33.936Z,60.3
2018-12-24T02:52:33.923Z,60.3
2018-12-24T02:53:33.923Z,72.4
2018-12-24T02:54:33.986Z,63.4
2018-12-24T02:55:33.931Z,72.4
2018-12-24T02:56:33.947Z,60.3
2018-12-24T02:57:33.935Z,60.3
2018-12-24T02:58:33.904Z,60.3
2018-12-24T02:59:33.910Z,60.3
2018-12-24T03:00:33.921Z,60.3
2018-12-24T03:01:33.980Z,54.3
2018-12-24T03:02:33.907Z,63.4
2018-12-24T03:03:33.941Z,54.3
2018-12-24T03:04:33.955Z,54.3
2018-12-24T03:05:33.907Z,60.3
2018-12-24T03:06:33.901Z,60.3
2018-12-24T03:07:33.962Z,51.3
2018-12-24T03:08:33.894Z,54.3
2018-12-24T03:09:33.900Z,60.3
2018-12-24T03:10:33.901Z,48.3
2018-12-24T03:11:33.910Z,66.4
2018-12-24T03:12:33.958Z,60.3
2018-12-24T03:13:33.860Z,57.3
2018-12-24T03:14:33.902Z,60.3
2018-12-24T03:15:33.908Z,60.3
2018-12-24T03:16:33.969Z,57.3
2018-12-24T03:17:33.945Z,60.3
2018-12-24T03:18:33.895Z,60.3
2018-12-24T03:19:33.909Z,54.3
2018-12-24T03:20:33.896Z,54.3
2018-12-24T03:21:33.901Z,66.4
2018-12-24T03:22:33.971Z,63.4
2018-12-24T03:23:33.973Z,69.4
2018-12-24T03:24:33.862Z,69.4
2018-12-24T03:25:33.926Z,66.4
2018-12-24T03:26:33.949Z,54.3
2018-12-24T03:27:33.972Z,60.3
2018-12-24T03:28:33.894Z,60.3
2018-12-24T03:29:33.857Z,57.3
2018-12-24T03:30:33.976Z,60.3
2018-12-24T03:31:33.972Z,66.4
2018-12-24T03:32:33.920Z,54.3
2018-12-24T03:33:33.968Z,66.4
2018-12-24T03:34:33.868Z,66.4
2018-12-24T03:35:33.895Z,66.4
2018-12-24T03:36:33.909Z,66.4
2018-12-24T03:37:33.968Z,69.4
2018-12-24T03:38:33.882Z,66.4
2018-12-24T03:39:33.961Z,57.3
2018-12-24T03:40:33.871Z,63.4
2018-12-24T03:41:33.913Z,60.3
2018-12-24T03:42:33.899Z,60.3
2018-12-24T03:43:33.877Z,60.3
2018-12-24T03:44:33.952Z,60.3
2018-12-24T03:45:34.067Z,60.3
2018-12-24T03:46:33.899Z,63.4
2018-12-24T03:47:33.883Z,57.3
2018-12-24T03:48:33.904Z,63.4
2018-12-24T03:49:33.880Z,63.4
2018-12-24T03:50:33.893Z,69.4
2018-12-24T03:51:33.868Z,63.4
2018-12-24T03:52:33.907Z,66.4
2018-12-24T03:53:33.881Z,66.4
2018-12-24T03:54:33.940Z,69.4
2018-12-24T03:55:33.889Z,60.3
2018-12-24T03:56:33.862Z,60.3
2018-12-24T03:57:33.869Z,57.3
2018-12-24T03:58:33.882Z,69.4
2018-12-24T03:59:33.949Z,66.4
2018-12-24T04:00:33.888Z,66.4
2018-12-24T04:01:33.904Z,63.4
2018-12-24T04:02:33.847Z,63.4
2018-12-24T04:03:33.875Z,57.3
2018-12-24T04:04:33.952Z,63.4
2018-12-24T04:05:33.890Z,60.3
2018-12-24T04:06:33.884Z,57.3
2018-12-24T04:07:33.850Z,57.3
2018-12-24T04:08:33.947Z,63.4
2018-12-24T04:09:33.951Z,69.4
2018-12-24T04:10:33.904Z,75.4
2018-12-24T04:11:33.882Z,72.4
2018-12-24T04:12:33.838Z,57.3
2018-12-24T04:13:33.890Z,60.3
2018-12-24T04:14:33.954Z,66.4
2018-12-24T04:15:33.870Z,69.4
2018-12-24T04:16:33.931Z,60.3
2018-12-24T04:17:34.005Z,60.3
2018-12-24T04:18:33.860Z,57.3
2018-12-24T04:19:33.868Z,69.4
2018-12-24T04:20:33.937Z,60.3
2018-12-24T04:21:33.875Z,63.4
2018-12-24T04:22:33.954Z,60.3
2018-12-24T04:23:33.845Z,60.3
2018-12-24T04:24:33.874Z,60.3
2018-12-24T04:25:33.928Z,48.3
2018-12-24T04:26:33.876Z,51.3
2018-12-24T04:27:42.931Z,54.3
2018-12-24T04:28:33.925Z,51.3
2018-12-24T04:29:33.924Z,48.3
2018-12-24T04:30:33.878Z,51.3
2018-12-24T04:31:33.849Z,54.3
2018-12-24T04:32:33.869Z,51.3
2018-12-24T04:33:33.948Z,45.3
2018-12-24T04:34:33.933Z,51.3
2018-12-24T04:35:33.863Z,54.3
2018-12-24T04:36:33.931Z,51.3
2018-12-24T04:37:33.869Z,51.3
2018-12-24T04:38:33.982Z,57.3
2018-12-24T04:39:33.849Z,51.3
2018-12-24T04:40:33.909Z,45.3
2018-12-24T04:41:33.863Z,63.4
2018-12-24T04:42:33.853Z,57.3
2018-12-24T04:43:33.911Z,69.4
2018-12-24T04:44:33.916Z,60.3
2018-12-24T04:45:33.834Z,63.4
2018-12-24T04:46:33.874Z,51.3
2018-12-24T04:47:33.902Z,54.3
2018-12-24T04:48:33.875Z,66.4
2018-12-24T04:49:33.851Z,51.3
2018-12-24T04:50:33.916Z,60.3
2018-12-24T04:51:33.827Z,57.3
2018-12-24T04:52:33.858Z,57.3
2018-12-24T04:53:33.949Z,54.3
2018-12-24T04:54:33.866Z,48.3
2018-12-24T04:55:33.933Z,51.3
2018-12-24T04:56:33.818Z,60.3
2018-12-24T04:57:33.893Z,75.4
2018-12-24T04:58:33.852Z,54.3
2018-12-24T04:59:33.927Z,60.3
2018-12-24T05:00:33.847Z,54.3
2018-12-24T05:01:33.938Z,51.3
2018-12-24T05:02:33.812Z,54.3
2018-12-24T05:03:33.856Z,48.3
2018-12-24T05:04:33.857Z,54.3
2018-12-24T05:05:33.841Z,57.3
2018-12-24T05:06:33.960Z,48.3
2018-12-24T05:07:33.811Z,45.3
2018-12-24T05:08:33.847Z,54.3
2018-12-24T05:09:33.838Z,51.3
2018-12-24T05:10:33.839Z,45.3
2018-12-24T05:11:33.901Z,60.3
2018-12-24T05:12:33.846Z,51.3
2018-12-24T05:13:42.014Z,48.3
2018-12-24T05:14:33.839Z,48.3
2018-12-24T05:15:33.826Z,42.3
2018-12-24T05:16:33.912Z,48.3
2018-12-24T05:17:33.851Z,51.3
2018-12-24T05:18:33.823Z,51.3
2018-12-24T05:19:33.819Z,54.3
2018-12-24T05:20:33.914Z,54.3
2018-12-24T05:21:33.926Z,42.3
2018-12-24T05:22:33.832Z,48.3
2018-12-24T05:23:33.813Z,48.3
2018-12-24T05:24:33.899Z,45.3
2018-12-24T05:25:33.909Z,48.3
2018-12-24T05:26:33.866Z,48.3
2018-12-24T05:27:33.840Z,39.3
2018-12-24T05:28:33.827Z,48.3
2018-12-24T05:29:33.810Z,45.3
2018-12-24T05:30:33.901Z,54.3
2018-12-24T05:31:33.836Z,48.3
2018-12-24T05:32:33.850Z,51.3
2018-12-24T05:33:34.003Z,48.3
2018-12-24T05:34:33.818Z,48.3
2018-12-24T05:35:33.870Z,51.3
2018-12-24T05:36:33.825Z,51.3
2018-12-24T05:37:33.829Z,45.3
2018-12-24T05:38:33.834Z,42.3
2018-12-24T05:39:33.817Z,51.3
2018-12-24T05:40:33.855Z,48.3
2018-12-24T05:41:33.840Z,45.3
2018-12-24T05:42:33.828Z,51.3
2018-12-24T05:43:33.899Z,48.3
2018-12-24T05:44:33.847Z,51.3
2018-12-24T05:45:33.791Z,57.3
2018-12-24T05:46:33.814Z,48.3
2018-12-24T05:47:33.820Z,48.3
2018-12-24T05:48:33.904Z,48.3
2018-12-24T05:49:33.814Z,39.3
2018-12-24T05:50:33.842Z,39.3
2018-12-24T05:51:33.780Z,45.3
2018-12-24T05:52:33.826Z,48.3
2018-12-24T05:53:33.885Z,54.3
2018-12-24T05:54:33.830Z,48.3
2018-12-24T05:55:33.834Z,45.3
2018-12-24T05:56:33.800Z,39.3
2018-12-24T05:57:33.842Z,51.3
2018-12-24T05:58:33.885Z,42.3
2018-12-24T05:59:33.887Z,42.3
2018-12-24T06:00:33.811Z,45.3
2018-12-24T06:01:33.793Z,45.3
2018-12-24T06:02:33.791Z,45.3
2018-12-24T06:03:33.811Z,48.3
2018-12-24T06:04:33.871Z,42.3
2018-12-24T06:05:33.823Z,42.3
2018-12-24T06:06:33.815Z,57.3
2018-12-24T06:07:33.808Z,54.3
2018-12-24T06:08:33.806Z,51.3
2018-12-24T06:09:33.892Z,51.3
2018-12-24T06:10:34.016Z,42.3
2018-12-24T06:11:33.797Z,45.3
2018-12-24T06:12:33.775Z,60.3
2018-12-24T06:13:33.886Z,51.3
2018-12-24T06:14:33.814Z,45.3
2018-12-24T06:15:33.862Z,48.3
2018-12-24T06:16:33.802Z,60.3
2018-12-24T06:17:33.798Z,51.3
2018-12-24T06:18:33.851Z,54.3
2018-12-24T06:19:34.004Z,54.3
2018-12-24T06:20:38.892Z,54.3
2018-12-24T06:21:33.821Z,54.3
2018-12-24T06:22:33.809Z,60.3
2018-12-24T06:23:33.848Z,54.3
2018-12-24T06:24:33.771Z,48.3
2018-12-24T06:25:33.808Z,57.3
2018-12-24T06:26:33.864Z,48.3
2018-12-24T06:27:33.800Z,48.3
2018-12-24T06:28:33.803Z,54.3
2018-12-24T06:29:33.797Z,60.3
2018-12-24T06:30:33.917Z,54.3
2018-12-24T06:31:35.712Z,63.4
2018-12-24T06:32:33.805Z,63.4
2018-12-24T06:33:33.804Z,57.3
2018-12-24T06:34:33.856Z,54.3
2018-12-24T06:35:33.774Z,57.3
2018-12-24T06:36:33.822Z,63.4
2018-12-24T06:37:33.809Z,66.4
2018-12-24T06:38:33.795Z,60.3
2018-12-24T06:39:33.884Z,63.4
2018-12-24T06:40:33.774Z,63.4
2018-12-24T06:41:33.787Z,63.4
2018-12-24T06:42:33.794Z,51.3
2018-12-24T06:43:33.803Z,51.3
2018-12-24T06:44:33.874Z,60.3
2018-12-24T06:45:33.772Z,57.3
2018-12-24T06:46:33.799Z,57.3
2018-12-24T06:47:33.800Z,60.3
2018-12-24T06:48:33.799Z,51.3
2018-12-24T06:49:33.853Z,54.3
2018-12-24T06:50:33.875Z,57.3
2018-12-24T06:51:33.762Z,48.3
2018-12-24T06:52:33.786Z,54.3
2018-12-24T06:53:33.789Z,51.3
2018-12-24T06:54:33.819Z,48.3
2018-12-24T06:55:33.915Z,48.3
2018-12-24T06:56:33.767Z,51.3
2018-12-24T06:57:33.795Z,48.3
2018-12-24T06:58:33.796Z,48.3
2018-12-24T06:59:33.807Z,45.3
2018-12-24T07:00:33.796Z,45.3
2018-12-24T07:01:33.754Z,45.3
2018-12-24T07:02:33.835Z,45.3
2018-12-24T07:03:33.859Z,45.3
2018-12-24T07:04:33.769Z,48.3
2018-12-24T07:05:33.788Z,45.3
2018-12-24T07:06:33.773Z,42.3
2018-12-24T07:07:33.817Z,42.3
2018-12-24T07:08:33.829Z,36.3
2018-12-24T07:09:33.793Z,36.3
2018-12-24T07:10:33.778Z,33.3
2018-12-24T07:11:33.778Z,36.3
2018-12-24T07:12:33.807Z,36.3
2018-12-24T07:13:33.759Z,36.3
2018-12-24T07:14:33.843Z,33.3
2018-12-24T07:15:33.756Z,39.3
2018-12-24T07:16:33.801Z,36.3
2018-12-24T07:17:33.772Z,30.3
2018-12-24T07:18:33.811Z,30.3
2018-12-24T07:19:33.788Z,30.3
2018-12-24T07:20:43.655Z,27.3
2018-12-24T07:21:33.783Z,24.3
2018-12-24T07:22:33.737Z,21.3
2018-12-24T07:23:33.816Z,24.3
2018-12-24T07:24:33.735Z,27.3
2018-12-24T07:25:33.916Z,27.3
2018-12-24T07:26:33.784Z,27.3
2018-12-24T07:27:33.819Z,27.3
2018-12-24T07:28:33.763Z,30.3
2018-12-24T07:29:33.737Z,27.3
2018-12-24T07:30:33.847Z,27.3
2018-12-24T07:31:33.773Z,21.3
2018-12-24T07:32:33.765Z,24.3
2018-12-24T07:33:33.846Z,21.3
2018-12-24T07:34:34.122Z,24.3
2018-12-24T07:35:33.771Z,24.3
2018-12-24T07:36:33.754Z,27.3
2018-12-24T07:37:33.739Z,24.3
2018-12-24T07:38:33.768Z,24.3
2018-12-24T07:39:33.847Z,24.3
2018-12-24T07:40:34.123Z,21.3
2018-12-24T07:41:33.799Z,24.3
2018-12-24T07:42:35.938Z,21.3
2018-12-24T07:43:33.803Z,21.3
2018-12-24T07:44:33.790Z,24.3
2018-12-24T07:45:33.745Z,21.3
2018-12-24T07:46:33.800Z,21.3
2018-12-24T07:47:33.831Z,18.3
2018-12-24T07:48:33.770Z,18.3
2018-12-24T07:49:33.791Z,18.3
2018-12-24T07:50:33.747Z,18.3
2018-12-24T07:51:33.804Z,24.3
2018-12-24T07:52:33.801Z,18.3
2018-12-24T07:53:35.237Z,21.3
2018-12-24T07:54:33.740Z,24.3
2018-12-24T07:55:33.771Z,27.3
2018-12-24T07:56:33.720Z,30.3
2018-12-24T07:57:33.796Z,24.3
2018-12-24T07:58:33.809Z,24.3
2018-12-24T07:59:33.840Z,24.3
2018-12-24T08:00:33.754Z,27.3
2018-12-24T08:01:34.021Z,39.3
2018-12-24T08:02:33.743Z,42.3
2018-12-24T08:03:33.774Z,42.3
2018-12-24T08:04:34.276Z,51.3
2018-12-24T08:06:37.560Z,48.3
2018-12-24T08:08:41.530Z,48.3
2018-12-24T08:09:41.425Z,42.3
2018-12-24T08:10:42.079Z,45.3
2018-12-24T08:11:41.598Z,39.3
2018-12-24T08:12:41.872Z,39.3
2018-12-24T08:13:43.745Z,36.3
2018-12-24T08:14:41.876Z,36.3
2018-12-24T08:15:41.926Z,39.3
2018-12-24T08:16:41.842Z,42.3
2018-12-24T08:17:42.538Z,39.3
2018-12-24T08:18:41.654Z,39.3
2018-12-24T08:19:41.978Z,36.3
2018-12-24T08:20:41.542Z,42.3
2018-12-24T08:21:41.776Z,36.3
2018-12-24T08:22:42.036Z,36.3
2018-12-24T08:23:41.343Z,36.3
2018-12-24T08:24:41.868Z,33.3
2018-12-24T08:25:42.084Z,30.3
2018-12-24T08:26:42.101Z,27.3
2018-12-24T08:27:42.824Z,27.3
2018-12-24T08:28:42.317Z,27.3
2018-12-24T08:29:41.562Z,33.3
2018-12-24T08:30:42.070Z,33.3
2018-12-24T08:31:41.711Z,33.3
2018-12-24T08:32:41.538Z,30.3
2018-12-24T08:33:41.596Z,33.3
2018-12-24T08:34:41.881Z,27.3
2018-12-24T08:35:41.772Z,30.3
2018-12-24T08:36:41.531Z,33.3
2018-12-24T08:37:41.181Z,33.3
2018-12-24T08:38:41.117Z,39.3
2018-12-24T08:39:41.191Z,36.3
2018-12-24T08:40:41.191Z,36.3
2018-12-24T08:41:41.167Z,36.3
2018-12-24T08:42:41.139Z,36.3
2018-12-24T08:43:41.162Z,45.3
2018-12-24T08:44:43.200Z,45.3
2018-12-24T08:45:41.173Z,42.3
2018-12-24T08:46:41.157Z,42.3
2018-12-24T08:47:41.142Z,39.3
2018-12-24T08:48:41.159Z,39.3
2018-12-24T08:49:42.649Z,39.3
2018-12-24T08:50:42.136Z,39.3
2018-12-24T08:51:41.755Z,45.3
2018-12-24T08:52:41.927Z,39.3
2018-12-24T08:53:42.270Z,39.3
2018-12-24T08:54:41.649Z,45.3
2018-12-24T08:55:41.722Z,42.3
2018-12-24T08:56:42.300Z,45.3
2018-12-24T08:57:41.735Z,54.3
2018-12-24T08:58:41.435Z,48.3
2018-12-24T09:00:45.580Z,45.3
2018-12-24T09:01:45.624Z,36.3
2018-12-24T09:02:47.313Z,33.3
2018-12-24T09:03:45.649Z,42.3
2018-12-24T09:04:45.137Z,42.3
2018-12-24T09:05:44.996Z,42.3
2018-12-24T09:06:45.510Z,39.3
2018-12-24T09:07:45.203Z,39.3
2018-12-24T09:08:45.310Z,39.3
2018-12-24T09:09:45.071Z,39.3
2018-12-24T09:10:45.084Z,33.3
2018-12-24T09:11:45.075Z,30.3
2018-12-24T09:12:44.588Z,33.3
2018-12-24T09:13:44.581Z,27.3
2018-12-24T09:14:51.463Z,30.3
2018-12-24T09:15:44.556Z,30.3
2018-12-24T09:16:44.565Z,27.3
2018-12-24T09:17:44.542Z,24.3
2018-12-24T09:18:44.579Z,21.3
2018-12-24T09:19:44.573Z,24.3
2018-12-24T09:20:52.435Z,18.3
2018-12-24T09:21:44.661Z,27.3
2018-12-24T09:22:44.576Z,24.3
2018-12-24T09:23:44.569Z,21.3
2018-12-24T09:24:44.563Z,21.3
2018-12-24T09:25:44.573Z,24.3
2018-12-24T09:26:44.624Z,18.3
2018-12-24T09:27:44.641Z,18.3
2018-12-24T09:28:44.594Z,18.3
2018-12-24T09:29:44.558Z,30.3
2018-12-24T09:30:44.550Z,36.3
2018-12-24T09:31:44.561Z,27.3
2018-12-24T09:32:44.563Z,27.3
2018-12-24T09:33:44.643Z,27.3
2018-12-24T09:34:44.535Z,27.3
2018-12-24T09:35:44.594Z,24.3
2018-12-24T09:36:44.598Z,27.3
2018-12-24T09:37:44.537Z,24.3
2018-12-24T09:38:44.601Z,24.3
2018-12-24T09:39:44.624Z,30.3
2018-12-24T09:40:44.571Z,33.3
2018-12-24T09:41:44.583Z,30.3
2018-12-24T09:42:44.571Z,27.3
2018-12-24T09:43:44.642Z,30.3
2018-12-24T09:44:44.581Z,21.3
2018-12-24T09:45:44.614Z,33.3
2018-12-24T09:46:44.582Z,30.3
2018-12-24T09:47:47.690Z,27.3
2018-12-24T09:48:44.576Z,27.3
2018-12-24T09:49:44.644Z,27.3
2018-12-24T09:50:44.536Z,33.3
2018-12-24T09:51:44.546Z,30.3
2018-12-24T09:52:44.576Z,24.3
2018-12-24T09:53:44.560Z,39.3
2018-12-24T09:54:44.626Z,36.3
2018-12-24T09:55:44.572Z,36.3
2018-12-24T09:56:44.565Z,30.3
2018-12-24T09:57:44.621Z,36.3
2018-12-24T09:58:44.560Z,30.3
2018-12-24T09:59:44.558Z,27.3
2018-12-24T10:00:44.693Z,33.3
2018-12-24T10:01:44.569Z,30.3
2018-12-24T10:02:44.565Z,33.3
2018-12-24T10:03:44.607Z,36.3
2018-12-24T10:04:44.558Z,33.3
2018-12-24T10:05:44.628Z,33.3
2018-12-24T10:06:44.549Z,36.3
2018-12-24T10:07:44.616Z,30.3
2018-12-24T10:08:44.525Z,27.3
2018-12-24T10:09:44.553Z,30.3
2018-12-24T10:10:44.548Z,30.3
2018-12-24T10:11:44.620Z,36.3
2018-12-24T10:12:44.529Z,39.3
2018-12-24T10:13:44.579Z,36.3
2018-12-24T10:14:44.629Z,39.3
2018-12-24T10:15:46.041Z,36.3
2018-12-24T10:16:44.624Z,33.3
2018-12-24T10:17:44.537Z,30.3
2018-12-24T10:18:44.519Z,30.3
2018-12-24T10:19:44.576Z,30.3
2018-12-24T10:20:44.547Z,30.3
2018-12-24T10:21:44.666Z,27.3
2018-12-24T10:22:44.566Z,24.3
2018-12-24T10:23:44.608Z,27.3
2018-12-24T10:24:44.541Z,21.3
2018-12-24T10:25:44.552Z,24.3
2018-12-24T10:26:44.589Z,21.3
2018-12-24T10:27:44.573Z,21.3
2018-12-24T10:28:44.592Z,30.3
2018-12-24T10:29:44.516Z,27.3
2018-12-24T10:30:44.537Z,18.3
2018-12-24T10:31:44.541Z,24.3
2018-12-24T10:32:44.625Z,24.3
2018-12-24T10:33:44.543Z,24.3
2018-12-24T10:34:44.577Z,21.3
2018-12-24T10:35:44.531Z,21.3
2018-12-24T10:36:44.687Z,18.3
2018-12-24T10:37:44.571Z,24.3
2018-12-24T10:38:44.573Z,21.3
2018-12-24T10:39:44.607Z,24.3
2018-12-24T10:40:44.545Z,21.3
2018-12-24T10:41:44.537Z,21.3
2018-12-24T10:42:44.580Z,21.3
2018-12-24T10:43:44.600Z,21.3
2018-12-24T10:44:44.535Z,15.4
2018-12-24T10:45:44.560Z,15.4
2018-12-24T10:46:44.672Z,15.4
2018-12-24T10:47:44.533Z,15.4
2018-12-24T10:48:46.495Z,15.4
2018-12-24T10:49:44.541Z,12.4
2018-12-24T10:50:44.502Z,12.4
2018-12-24T10:51:44.612Z,9.5
2018-12-24T10:52:44.684Z,12.4
2018-12-24T10:53:44.529Z,9.5
2018-12-24T10:54:44.550Z,9.5
2018-12-24T10:55:44.558Z,15.4
2018-12-24T10:56:44.677Z,12.4
2018-12-24T10:57:44.595Z,9.5
2018-12-24T10:58:44.608Z,6.6
2018-12-24T10:59:44.590Z,1.8
2018-12-24T11:00:44.589Z,6.6
2018-12-24T11:01:45.966Z,3.9
2018-12-24T11:02:44.623Z,0
2018-12-24T11:03:44.557Z,0
2018-12-24T11:04:44.535Z,0
2018-12-24T11:05:44.544Z,0
2018-12-24T11:06:44.527Z,15.4
2018-12-24T11:07:44.582Z,12.4
2018-12-24T11:08:44.520Z,27.3
2018-12-24T11:09:44.558Z,30.3
2018-12-24T11:10:46.650Z,39.3
2018-12-24T11:11:44.563Z,42.3
2018-12-24T11:12:44.701Z,42.3
2018-12-24T11:13:44.509Z,45.3
2018-12-24T11:15:48.282Z,36.3
2018-12-24T11:16:47.349Z,36.3
2018-12-24T11:17:49.201Z,36.3
2018-12-24T11:18:48.116Z,36.3
2018-12-24T11:19:48.606Z,36.3
2018-12-24T11:20:48.508Z,36.3
2018-12-24T11:21:47.337Z,33.3
2018-12-24T11:22:48.193Z,27.3
2018-12-24T11:23:49.563Z,30.3
2018-12-24T11:24:48.185Z,27.3
2018-12-24T11:25:47.332Z,18.3
2018-12-24T11:26:47.336Z,15.4
2018-12-24T11:27:48.775Z,15.4
2018-12-24T11:28:47.463Z,15.4
2018-12-24T11:29:48.972Z,18.3
2018-12-24T11:30:47.542Z,21.3
2018-12-24T11:31:48.812Z,24.3
2018-12-24T11:32:48.178Z,21.3
2018-12-24T11:33:51.220Z,24.3
2018-12-24T11:34:47.327Z,33.3
2018-12-24T11:35:47.413Z,30.3
2018-12-24T11:36:48.447Z,30.3
2018-12-24T11:37:47.340Z,33.3
2018-12-24T11:38:47.396Z,36.3
2018-12-24T11:39:47.342Z,33.3
2018-12-24T11:40:47.444Z,42.3
2018-12-24T11:41:47.359Z,51.3
2018-12-24T11:42:47.337Z,54.3
2018-12-24T11:43:47.328Z,51.3
2018-12-24T11:44:47.373Z,57.3
2018-12-24T11:45:47.397Z,63.4
2018-12-24T11:46:47.371Z,57.3
2018-12-24T11:47:47.387Z,54.3
2018-12-24T11:48:47.365Z,51.3
2018-12-24T11:49:47.436Z,51.3
2018-12-24T11:50:47.335Z,51.3
2018-12-24T11:51:47.415Z,51.3
2018-12-24T11:52:47.368Z,51.3
2018-12-24T11:53:47.425Z,54.3
2018-12-24T11:54:47.364Z,51.3
2018-12-24T11:55:47.369Z,57.3
2018-12-24T11:56:47.427Z,51.3
2018-12-24T11:57:48.699Z,75.4
2018-12-24T11:58:47.403Z,75.4
2018-12-24T11:59:47.495Z,81.4
2018-12-24T12:00:47.377Z,78.4
2018-12-24T12:01:47.402Z,66.4
2018-12-24T12:02:47.356Z,75.4
2018-12-24T12:03:47.347Z,69.4
2018-12-24T12:04:47.441Z,66.4
2018-12-24T12:05:47.373Z,66.4
2018-12-24T12:06:47.333Z,60.3
2018-12-24T12:07:47.345Z,45.3
2018-12-24T12:08:47.366Z,66.4
2018-12-24T12:09:47.403Z,72.4
2018-12-24T12:10:47.368Z,69.4
2018-12-24T12:11:47.424Z,75.4
2018-12-24T12:12:47.376Z,63.4
2018-12-24T12:13:47.425Z,78.4
2018-12-24T12:14:47.417Z,81.4
2018-12-24T12:15:47.354Z,75.4
2018-12-24T12:16:47.316Z,81.4
2018-12-24T12:17:47.350Z,75.4
2018-12-24T12:18:47.347Z,69.4
2018-12-24T12:19:47.416Z,60.3
2018-12-24T12:20:53.757Z,54.3
2018-12-24T12:21:47.315Z,63.4
2018-12-24T12:22:47.344Z,63.4
2018-12-24T12:23:47.312Z,60.3
2018-12-24T12:24:47.404Z,54.3
2018-12-24T12:25:47.527Z,48.3
2018-12-24T12:26:47.299Z,57.3
2018-12-24T12:27:47.413Z,69.4
2018-12-24T12:28:47.334Z,69.4
2018-12-24T12:29:47.352Z,66.4
2018-12-24T12:30:47.423Z,63.4
2018-12-24T12:31:52.849Z,60.3
2018-12-24T12:32:52.827Z,63.4
2018-12-24T12:33:52.898Z,60.3
2018-12-24T12:34:52.804Z,54.3
2018-12-24T12:35:54.069Z,51.3
2018-12-24T12:36:52.810Z,66.4
2018-12-24T12:37:52.840Z,66.4
2018-12-24T12:38:52.861Z,66.4
2018-12-24T12:39:53.539Z,69.4
2018-12-24T12:40:55.080Z,57.3
2018-12-24T12:41:55.219Z,66.4
2018-12-24T12:42:53.638Z,69.4
2018-12-24T12:43:53.820Z,63.4
2018-12-24T12:44:54.594Z,63.4
2018-12-24T12:45:53.558Z,60.3
2018-12-24T12:47:58.952Z,75.4
2018-12-24T12:48:58.924Z,66.4
2018-12-24T12:49:58.591Z,72.4
2018-12-24T12:50:59.926Z,72.4
2018-12-24T12:53:04.012Z,63.4
2018-12-24T12:54:03.088Z,72.4
2018-12-24T12:55:04.341Z,54.3
2018-12-24T12:56:03.845Z,60.3
2018-12-24T12:57:03.860Z,54.3
2018-12-24T12:58:03.303Z,51.3
2018-12-24T12:59:01.713Z,54.3
2018-12-24T13:00:04.547Z,51.3
2018-12-24T13:01:02.848Z,54.3
2018-12-24T13:02:02.523Z,54.3
2018-12-24T13:03:04.265Z,45.3
2018-12-24T13:04:02.026Z,54.3
2018-12-24T13:05:02.339Z,66.4
2018-12-24T13:06:02.299Z,81.4
2018-12-24T13:07:03.251Z,66.4
2018-12-24T13:08:02.786Z,63.4
2018-12-24T13:09:00.957Z,57.3
2018-12-24T13:10:04.605Z,66.4
2018-12-24T13:11:03.439Z,66.4
2018-12-24T13:12:03.600Z,72.4
2018-12-24T13:13:02.381Z,66.4
2018-12-24T13:14:02.557Z,66.4
2018-12-24T13:15:02.790Z,69.4
2018-12-24T13:16:01.250Z,54.3
2018-12-24T13:17:02.700Z,57.3
2018-12-24T13:18:03.663Z,63.4
2018-12-24T13:19:01.471Z,57.3
2018-12-24T13:20:00.935Z,57.3
2018-12-24T13:21:00.941Z,60.3
2018-12-24T13:22:05.516Z,54.3
2018-12-24T13:23:00.899Z,51.3
2018-12-24T13:24:00.907Z,60.3
2018-12-24T13:25:00.934Z,66.4
2018-12-24T13:26:00.934Z,63.4